Time;durP1;ratioP1;P1;durP2;ratioP2;P2;SDS_P1;SDS_P2;PMS_P1;PMS_P2;Temp;Humidity;BMP_temperature;BMP_pressure;BME280_temperature;BME280_humidity;BME280_pressure;Samples;Min_cycle;Max_cycle;Signal;HPM_P1;HPM_P2
2021/01/14 00:02:23;;;;;;;0.10;0.10;;;4.80;99.90;;;;;;5000163;28;20223;-86
2021/01/14 00:04:48;;;;;;;0.10;0.10;;;4.80;99.90;;;;;;5013485;28;20307;-86
2021/01/14 00:07:14;;;;;;;0.20;0.17;;;4.90;99.90;;;;;;5013003;28;20298;-86
2021/01/14 00:09:40;;;;;;;2.53;0.57;;;5.00;99.90;;;;;;5012148;28;20903;-87
2021/01/14 00:12:06;;;;;;;0.10;0.10;;;5.00;99.90;;;;;;5012646;28;20195;-86
2021/01/14 00:14:31;;;;;;;0.30;0.30;;;5.00;99.90;;;;;;5013197;28;20194;-87
2021/01/14 00:16:57;;;;;;;0.70;0.70;;;4.90;99.90;;;;;;5013326;28;20188;-87
2021/01/14 00:19:22;;;;;;;0.27;0.27;;;4.90;99.90;;;;;;5013530;28;20254;-87
2021/01/14 00:21:48;;;;;;;0.20;0.10;;;4.90;99.90;;;;;;5012002;28;20280;-86
2021/01/14 00:24:13;;;;;;;0.20;0.20;;;5.00;99.90;;;;;;5012439;28;20188;-86
2021/01/14 00:26:40;;;;;;;0.10;0.10;;;4.90;99.90;;;;;;5013136;28;20180;-86
2021/01/14 00:29:06;;;;;;;0.30;0.30;;;4.90;99.90;;;;;;5013160;28;20193;-86
2021/01/14 00:31:33;;;;;;;0.10;0.10;;;4.90;99.90;;;;;;5011582;28;20201;-86
2021/01/14 00:33:58;;;;;;;0.27;0.27;;;4.90;99.90;;;;;;5012189;28;20185;-86
2021/01/14 00:37:50;;;;;;;1.00;0.50;;;4.80;99.90;;;;;;5011958;28;20189;-86
2021/01/14 00:39:20;;;;;;;0.00;0.00;;;4.80;99.90;;;;;;5017440;28;20258;-86
2021/01/14 00:41:48;;;;;;;0.10;0.10;;;4.80;99.90;;;;;;5012816;28;20185;-86
2021/01/14 00:44:14;;;;;;;0.63;0.63;;;4.70;99.90;;;;;;5012149;28;20173;-86
2021/01/14 00:46:40;;;;;;;0.20;0.20;;;4.80;99.90;;;;;;5013250;28;20553;-85
2021/01/14 00:49:06;;;;;;;0.20;0.20;;;4.80;99.90;;;;;;5011940;28;20236;-86
2021/01/14 00:51:35;;;;;;;0.10;0.10;;;4.80;99.90;;;;;;5008743;28;20189;-87
2021/01/14 00:54:01;;;;;;;0.10;0.10;;;4.80;99.90;;;;;;5006020;28;20188;-86
2021/01/14 00:56:37;;;;;;;0.30;0.30;;;4.80;99.90;;;;;;5013064;28;20181;-86
2021/01/14 00:59:03;;;;;;;1.47;0.30;;;4.80;99.90;;;;;;5011730;28;20212;-86
2021/01/14 01:01:30;;;;;;;0.10;0.10;;;4.90;99.90;;;;;;5012224;28;20186;-86
2021/01/14 01:03:56;;;;;;;0.20;0.20;;;4.90;99.90;;;;;;5013156;28;20192;-86
2021/01/14 01:06:23;;;;;;;0.10;0.10;;;4.90;99.90;;;;;;5011232;28;20666;-86
2021/01/14 01:08:49;;;;;;;0.60;0.50;;;4.90;99.90;;;;;;5010831;28;20240;-85
2021/01/14 01:11:16;;;;;;;0.10;0.10;;;4.80;99.90;;;;;;5010048;28;20184;-84
2021/01/14 01:13:42;;;;;;;0.10;0.10;;;4.90;99.90;;;;;;5012724;28;20589;-86
2021/01/14 01:16:15;;;;;;;0.10;0.10;;;4.80;99.90;;;;;;5011858;28;20186;-87
2021/01/14 01:18:40;;;;;;;0.10;0.10;;;4.70;99.90;;;;;;5012551;28;20189;-87
2021/01/14 01:21:06;;;;;;;0.10;0.10;;;4.80;99.90;;;;;;5011178;28;20251;-86
2021/01/14 01:23:31;;;;;;;0.10;0.10;;;4.70;99.90;;;;;;5011608;28;20197;-86
2021/01/14 01:25:57;;;;;;;0.60;0.23;;;4.70;99.90;;;;;;5010875;28;20192;-86
2021/01/14 01:28:22;;;;;;;0.20;0.20;;;4.70;99.90;;;;;;5012639;28;20309;-87
2021/01/14 01:30:48;;;;;;;0.20;0.20;;;4.70;99.90;;;;;;5010660;28;20237;-87
2021/01/14 01:33:13;;;;;;;0.20;0.20;;;4.60;99.90;;;;;;5006542;28;20178;-86
2021/01/14 01:35:50;;;;;;;0.30;0.30;;;4.70;99.90;;;;;;5011354;28;20750;-87
2021/01/14 01:38:16;;;;;;;0.30;0.30;;;4.60;99.90;;;;;;5012568;28;20195;-86
2021/01/14 01:40:42;;;;;;;0.30;0.30;;;4.60;99.90;;;;;;5011443;28;20216;-86
2021/01/14 01:43:08;;;;;;;0.40;0.40;;;4.60;99.90;;;;;;5011098;28;20195;-86
2021/01/14 01:45:34;;;;;;;0.53;0.30;;;4.60;99.90;;;;;;5011385;28;20184;-86
2021/01/14 01:48:00;;;;;;;0.40;0.40;;;4.50;99.90;;;;;;5010998;28;20200;-87
2021/01/14 01:50:26;;;;;;;0.20;0.20;;;4.40;99.90;;;;;;5010609;28;20199;-87
2021/01/14 01:52:54;;;;;;;0.20;0.10;;;4.30;99.90;;;;;;5011198;28;20721;-86
2021/01/14 01:55:21;;;;;;;0.20;0.20;;;4.30;99.90;;;;;;5010907;28;20272;-86
2021/01/14 01:57:47;;;;;;;0.20;0.20;;;4.30;99.90;;;;;;5010885;28;20201;-86
2021/01/14 02:00:13;;;;;;;0.20;0.20;;;4.30;99.90;;;;;;5010178;28;20683;-86
2021/01/14 02:02:39;;;;;;;1.17;0.33;;;4.40;99.90;;;;;;4997543;28;20188;-86
2021/01/14 02:05:06;;;;;;;0.20;0.20;;;4.30;99.90;;;;;;5004574;28;20616;-86
2021/01/14 02:07:35;;;;;;;0.57;0.30;;;4.20;99.90;;;;;;5010735;28;20204;-86
2021/01/14 02:10:07;;;;;;;0.50;0.50;;;4.20;99.90;;;;;;5010034;28;20605;-86
2021/01/14 02:12:39;;;;;;;0.20;0.20;;;4.10;99.90;;;;;;5010879;28;20615;-86
2021/01/14 02:15:06;;;;;;;0.10;0.10;;;4.10;99.90;;;;;;5010914;28;20188;-86
2021/01/14 02:17:31;;;;;;;0.00;0.00;;;4.10;99.90;;;;;;5010376;28;20198;-86
2021/01/14 02:20:01;;;;;;;0.10;0.10;;;4.10;99.90;;;;;;5008116;28;20207;-86
2021/01/14 02:22:37;;;;;;;0.10;0.10;;;4.00;99.90;;;;;;5010656;28;20199;-86
2021/01/14 02:25:16;;;;;;;0.87;0.40;;;4.00;99.90;;;;;;5010635;28;20196;-86
2021/01/14 02:27:43;;;;;;;0.10;0.10;;;4.00;99.90;;;;;;5013880;28;20299;-87
2021/01/14 02:30:10;;;;;;;0.23;0.23;;;4.00;99.90;;;;;;5015216;28;20294;-87
2021/01/14 02:32:36;;;;;;;0.10;0.10;;;4.00;99.90;;;;;;5013318;28;20192;-86
2021/01/14 02:35:02;;;;;;;0.10;0.10;;;3.90;99.90;;;;;;5011032;28;20185;-86
2021/01/14 02:37:27;;;;;;;1.80;0.77;;;3.90;99.90;;;;;;5019531;28;20189;-86
2021/01/14 02:39:53;;;;;;;0.10;0.10;;;3.90;99.90;;;;;;5028833;28;20208;-86
2021/01/14 02:42:18;;;;;;;0.17;0.17;;;3.90;99.90;;;;;;5004561;28;20192;-86
2021/01/14 02:44:44;;;;;;;0.20;0.20;;;4.00;99.90;;;;;;5000115;28;20209;-86
2021/01/14 02:47:12;;;;;;;0.10;0.10;;;4.00;99.90;;;;;;5006425;28;20668;-86
2021/01/14 02:50:00;;;;;;;0.10;0.10;;;3.90;99.90;;;;;;5013472;28;20281;-86
2021/01/14 02:52:27;;;;;;;0.13;0.13;;;3.90;99.90;;;;;;5015236;28;20191;-86
2021/01/14 02:54:56;;;;;;;3.97;1.60;;;3.90;99.90;;;;;;5013950;28;20267;-86
2021/01/14 02:57:24;;;;;;;0.40;0.40;;;3.90;99.90;;;;;;5013931;28;20245;-86
2021/01/14 02:59:53;;;;;;;0.10;0.10;;;3.90;99.90;;;;;;5012458;28;20266;-86
2021/01/14 03:02:18;;;;;;;0.10;0.10;;;3.90;99.90;;;;;;5013147;28;20284;-86
2021/01/14 03:04:44;;;;;;;0.00;0.00;;;4.00;99.90;;;;;;5015257;28;20615;-85
2021/01/14 03:07:09;;;;;;;0.77;0.30;;;4.00;99.90;;;;;;5014064;28;20231;-86
2021/01/14 03:09:35;;;;;;;0.10;0.10;;;4.00;99.90;;;;;;5014330;28;20696;-87
2021/01/14 03:12:00;;;;;;;0.20;0.20;;;3.90;99.90;;;;;;5013960;28;20413;-86
2021/01/14 03:14:26;;;;;;;0.10;0.10;;;3.90;99.90;;;;;;5014709;28;20196;-86
2021/01/14 03:16:51;;;;;;;0.20;0.10;;;3.90;99.90;;;;;;5014007;28;20234;-86
2021/01/14 03:19:21;;;;;;;0.10;0.10;;;3.90;99.90;;;;;;5013668;28;20215;-86
2021/01/14 03:21:46;;;;;;;0.10;0.10;;;3.90;99.90;;;;;;5013109;28;20188;-86
2021/01/14 03:24:12;;;;;;;0.50;0.50;;;3.80;99.90;;;;;;5028033;23;20600;-82
2021/01/14 03:26:39;;;;;;;0.10;0.10;;;3.80;99.90;;;;;;5012698;28;20183;-83
2021/01/14 03:29:05;;;;;;;0.27;0.27;;;3.90;99.90;;;;;;5020580;28;20834;-83
2021/01/14 03:31:30;;;;;;;0.10;0.10;;;4.00;99.90;;;;;;5018003;28;20315;-85
2021/01/14 03:33:56;;;;;;;0.37;0.37;;;4.00;99.90;;;;;;5011958;28;20572;-84
2021/01/14 03:36:21;;;;;;;0.47;0.40;;;4.00;99.90;;;;;;5011522;28;20190;-84
2021/01/14 03:38:47;;;;;;;0.20;0.20;;;3.80;99.90;;;;;;5010405;28;20299;-84
2021/01/14 03:41:16;;;;;;;0.60;0.50;;;3.80;99.90;;;;;;5005927;28;20279;-83
2021/01/14 03:43:42;;;;;;;0.60;0.20;;;3.80;99.90;;;;;;5013204;28;20187;-84
2021/01/14 03:46:11;;;;;;;0.20;0.20;;;3.90;99.90;;;;;;5011080;28;20181;-84
2021/01/14 03:48:39;;;;;;;0.70;0.20;;;3.80;99.90;;;;;;5010834;28;20203;-84
2021/01/14 03:51:16;;;;;;;0.13;0.13;;;3.60;99.90;;;;;;5011405;28;20190;-84
2021/01/14 03:53:42;;;;;;;0.13;0.13;;;3.60;99.90;;;;;;5013182;28;20178;-84
2021/01/14 03:56:08;;;;;;;0.10;0.10;;;3.60;99.90;;;;;;5012733;28;20191;-84
2021/01/14 03:58:34;;;;;;;0.20;0.10;;;3.60;99.90;;;;;;5027341;28;20183;-85
2021/01/14 04:00:59;;;;;;;0.10;0.10;;;3.60;99.90;;;;;;5007838;28;20180;-83
2021/01/14 04:03:25;;;;;;;0.10;0.10;;;3.50;99.90;;;;;;5028606;28;20195;-84
2021/01/14 04:05:51;;;;;;;0.10;0.10;;;3.50;99.90;;;;;;5011371;28;20706;-84
2021/01/14 04:08:16;;;;;;;0.10;0.10;;;3.50;99.90;;;;;;5012164;28;20242;-84
2021/01/14 04:10:42;;;;;;;0.20;0.20;;;3.50;99.90;;;;;;5009698;28;20175;-84
2021/01/14 04:13:08;;;;;;;0.10;0.10;;;3.60;99.90;;;;;;5012329;28;20207;-84
2021/01/14 04:15:33;;;;;;;1.67;1.03;;;3.60;99.90;;;;;;5027716;28;20679;-85
2021/01/14 04:17:59;;;;;;;0.10;0.10;;;3.60;99.90;;;;;;5012539;28;20178;-84
2021/01/14 04:20:24;;;;;;;0.00;0.00;;;3.60;99.90;;;;;;5028248;28;20175;-85
2021/01/14 04:22:50;;;;;;;0.10;0.10;;;3.50;99.90;;;;;;5007442;28;20239;-83
2021/01/14 04:25:16;;;;;;;0.10;0.10;;;3.30;99.90;;;;;;5024547;28;20585;-82
2021/01/14 04:27:41;;;;;;;0.10;0.10;;;3.20;99.90;;;;;;5011430;28;20583;-84
2021/01/14 04:30:08;;;;;;;0.10;0.10;;;3.20;99.90;;;;;;5028144;28;20179;-84
2021/01/14 04:32:33;;;;;;;0.10;0.10;;;3.20;99.90;;;;;;5010626;28;20171;-84
2021/01/14 04:34:59;;;;;;;0.00;0.00;;;3.20;99.90;;;;;;5009237;28;20210;-84
2021/01/14 04:37:25;;;;;;;0.10;0.10;;;3.10;99.90;;;;;;5012627;28;20678;-84
2021/01/14 04:39:50;;;;;;;0.10;0.10;;;3.10;99.90;;;;;;5011716;28;20183;-84
2021/01/14 04:42:18;;;;;;;0.10;0.10;;;3.20;99.90;;;;;;5012243;28;20628;-84
2021/01/14 04:44:44;;;;;;;0.10;0.10;;;3.10;99.90;;;;;;5027609;28;20203;-84
2021/01/14 04:47:14;;;;;;;0.00;0.00;;;3.20;99.90;;;;;;5004857;28;20236;-84
2021/01/14 04:49:40;;;;;;;0.10;0.10;;;3.30;99.90;;;;;;5007656;28;20195;-85
2021/01/14 04:52:15;;;;;;;0.10;0.10;;;3.40;99.90;;;;;;5010213;28;20186;-82
2021/01/14 04:54:42;;;;;;;0.30;0.30;;;3.50;99.90;;;;;;5011428;28;20222;-84
2021/01/14 04:57:20;;;;;;;0.40;0.40;;;3.40;99.90;;;;;;5010748;28;20188;-83
2021/01/14 04:59:51;;;;;;;0.10;0.10;;;3.50;99.90;;;;;;5008673;28;20195;-85
2021/01/14 05:02:21;;;;;;;0.00;0.00;;;3.20;99.90;;;;;;5007582;28;20194;-84
2021/01/14 05:04:52;;;;;;;0.10;0.10;;;3.20;99.90;;;;;;5011029;28;20265;-84
2021/01/14 05:07:48;;;;;;;0.10;0.10;;;3.10;99.90;;;;;;5010380;28;20209;-84
2021/01/14 05:10:22;;;;;;;0.00;0.00;;;3.20;99.90;;;;;;5002599;28;20627;-84
2021/01/14 05:12:48;;;;;;;1.40;0.10;;;3.20;99.90;;;;;;4998521;28;20756;-84
2021/01/14 05:15:15;;;;;;;0.10;0.10;;;3.10;99.90;;;;;;5009995;28;20203;-84
2021/01/14 05:17:41;;;;;;;0.00;0.00;;;3.10;99.90;;;;;;5010335;28;20195;-84
2021/01/14 05:20:07;;;;;;;0.00;0.00;;;3.20;99.90;;;;;;5010868;28;20196;-83
2021/01/14 05:22:38;;;;;;;0.00;0.00;;;3.20;99.90;;;;;;5010506;28;20202;-83
2021/01/14 05:25:06;;;;;;;5.77;0.30;;;3.30;99.90;;;;;;5010038;28;20254;-84
2021/01/14 05:27:32;;;;;;;0.00;0.00;;;3.30;99.90;;;;;;5009659;28;20262;-83
2021/01/14 05:30:16;;;;;;;0.33;0.33;;;3.30;99.90;;;;;;5007720;28;20215;-83
2021/01/14 05:32:44;;;;;;;0.10;0.10;;;3.40;99.90;;;;;;5010344;28;20179;-83
2021/01/14 05:35:12;;;;;;;0.10;0.10;;;3.50;99.90;;;;;;5009833;28;20215;-84
2021/01/14 05:37:42;;;;;;;0.60;0.30;;;3.10;99.90;;;;;;5009170;28;20269;-83
2021/01/14 05:40:13;;;;;;;0.10;0.10;;;3.10;99.90;;;;;;5010079;28;20277;-83
2021/01/14 05:42:39;;;;;;;0.17;0.17;;;3.20;99.90;;;;;;5009520;28;20671;-82
2021/01/14 05:45:20;;;;;;;0.10;0.10;;;3.20;99.90;;;;;;5010723;28;20241;-83
2021/01/14 05:47:46;;;;;;;0.10;0.10;;;3.20;99.90;;;;;;5002952;28;20216;-84
2021/01/14 05:50:11;;;;;;;0.10;0.10;;;3.10;99.90;;;;;;5009125;28;20233;-82
2021/01/14 05:52:38;;;;;;;1.60;0.63;;;3.10;99.90;;;;;;5025116;28;20324;-83
2021/01/14 05:55:07;;;;;;;0.10;0.10;;;3.20;99.90;;;;;;5008820;28;20198;-82
2021/01/14 05:57:35;;;;;;;0.10;0.10;;;3.20;99.90;;;;;;5009698;28;20191;-82
2021/01/14 06:00:08;;;;;;;0.00;0.00;;;3.20;99.90;;;;;;5004202;28;20187;-83
2021/01/14 06:02:34;;;;;;;0.10;0.10;;;3.10;99.90;;;;;;5006131;28;20195;-83
2021/01/14 06:05:00;;;;;;;0.20;0.20;;;3.00;99.90;;;;;;5009258;28;20224;-83
2021/01/14 06:07:39;;;;;;;0.00;0.00;;;3.00;99.90;;;;;;5010447;28;20226;-82
2021/01/14 06:10:06;;;;;;;0.10;0.10;;;3.00;99.90;;;;;;5007066;28;20558;-83
2021/01/14 06:12:32;;;;;;;0.17;0.17;;;3.10;99.90;;;;;;5024547;28;20310;-84
2021/01/14 06:14:57;;;;;;;3.40;0.23;;;3.10;99.90;;;;;;5010236;28;20235;-84
2021/01/14 06:17:33;;;;;;;0.10;0.10;;;3.00;99.90;;;;;;5021848;28;20246;-81
2021/01/14 06:20:09;;;;;;;0.10;0.10;;;3.00;99.90;;;;;;5002369;28;20192;-81
2021/01/14 06:22:37;;;;;;;0.07;0.07;;;3.00;99.90;;;;;;5000908;28;20197;-83
2021/01/14 06:25:05;;;;;;;0.10;0.10;;;3.00;99.90;;;;;;5009769;28;20253;-82
2021/01/14 06:27:31;;;;;;;0.00;0.00;;;3.00;99.90;;;;;;5009093;28;20350;-83
2021/01/14 06:30:03;;;;;;;0.00;0.00;;;3.00;99.90;;;;;;5008416;28;20321;-83
2021/01/14 06:32:28;;;;;;;0.10;0.10;;;3.00;99.90;;;;;;5009364;28;20207;-83
2021/01/14 06:34:54;;;;;;;0.00;0.00;;;3.10;99.90;;;;;;5010000;28;20209;-81
2021/01/14 06:37:25;;;;;;;0.10;0.10;;;2.90;99.90;;;;;;5018347;28;20195;-83
2021/01/14 06:39:56;;;;;;;0.43;0.20;;;2.90;99.90;;;;;;5007099;28;20237;-83
2021/01/14 06:42:30;;;;;;;0.30;0.10;;;3.00;99.90;;;;;;5015943;28;20639;-83
2021/01/14 06:45:05;;;;;;;0.00;0.00;;;3.00;99.90;;;;;;5025367;28;20582;-82
2021/01/14 06:47:33;;;;;;;0.00;0.00;;;3.00;99.90;;;;;;4995731;28;20671;-83
2021/01/14 06:50:19;;;;;;;0.17;0.17;;;3.00;99.90;;;;;;5009592;28;20185;-84
2021/01/14 06:52:48;;;;;;;0.00;0.00;;;3.00;99.90;;;;;;5007802;28;20180;-84
2021/01/14 06:55:15;;;;;;;0.10;0.10;;;2.90;99.90;;;;;;5010039;28;20195;-81
2021/01/14 06:57:50;;;;;;;0.10;0.10;;;2.90;99.90;;;;;;5010383;28;20614;-83
2021/01/14 07:00:19;;;;;;;0.03;0.03;;;3.00;99.90;;;;;;5009235;28;20179;-83
2021/01/14 07:03:03;;;;;;;0.10;0.10;;;3.00;99.90;;;;;;5008365;28;20185;-83
2021/01/14 07:05:36;;;;;;;0.10;0.10;;;2.90;99.90;;;;;;5010638;28;20620;-84
2021/01/14 07:08:25;;;;;;;0.10;0.10;;;2.90;99.90;;;;;;5008784;28;20214;-84
2021/01/14 07:11:02;;;;;;;0.00;0.00;;;3.00;99.90;;;;;;5009021;28;20179;-84
2021/01/14 07:13:34;;;;;;;0.73;0.73;;;3.00;99.90;;;;;;5009622;28;20187;-83
2021/01/14 07:16:03;;;;;;;0.10;0.10;;;2.90;99.90;;;;;;5010141;28;20201;-83
2021/01/14 07:18:31;;;;;;;0.00;0.00;;;2.80;99.90;;;;;;5013583;28;20191;-84
2021/01/14 07:21:22;;;;;;;0.77;0.30;;;2.80;99.90;;;;;;5007466;28;20267;-82
2021/01/14 07:24:04;;;;;;;0.07;0.07;;;2.90;99.90;;;;;;5006467;28;20571;-81
2021/01/14 07:26:32;;;;;;;0.00;0.00;;;2.90;99.90;;;;;;5025507;28;20710;-82
2021/01/14 07:29:02;;;;;;;0.10;0.10;;;2.80;99.90;;;;;;5008882;28;20254;-82
2021/01/14 07:31:28;;;;;;;0.10;0.10;;;2.80;99.90;;;;;;5010113;28;20184;-83
2021/01/14 07:33:54;;;;;;;0.00;0.00;;;2.80;99.90;;;;;;5011034;28;20870;-82
2021/01/14 07:36:24;;;;;;;0.10;0.10;;;2.80;99.90;;;;;;5011174;28;20196;-80
2021/01/14 07:38:55;;;;;;;0.00;0.00;;;2.80;99.90;;;;;;5012465;28;20237;-82
2021/01/14 07:41:22;;;;;;;0.00;0.00;;;2.80;99.90;;;;;;5022138;28;20286;-80
2021/01/14 07:43:49;;;;;;;0.10;0.10;;;2.80;99.90;;;;;;5028409;28;20279;-82
2021/01/14 07:46:17;;;;;;;0.10;0.10;;;2.80;99.90;;;;;;5010704;28;20219;-82
2021/01/14 07:48:43;;;;;;;0.53;0.10;;;2.90;99.90;;;;;;5009338;28;20217;-82
2021/01/14 07:51:09;;;;;;;0.23;0.23;;;3.00;99.90;;;;;;5009467;28;20202;-82
2021/01/14 07:53:35;;;;;;;0.10;0.10;;;3.00;99.90;;;;;;5006280;28;20283;-82
2021/01/14 07:56:23;;;;;;;0.20;0.20;;;3.00;99.90;;;;;;5000799;28;20278;-80
2021/01/14 07:58:55;;;;;;;0.20;0.20;;;3.00;99.90;;;;;;5021378;28;20234;-80
2021/01/14 08:01:22;;;;;;;0.00;0.00;;;3.10;99.90;;;;;;5006868;28;20182;-82
2021/01/14 08:03:48;;;;;;;0.10;0.10;;;3.10;99.90;;;;;;5012398;28;20208;-80
2021/01/14 08:06:29;;;;;;;0.30;0.30;;;3.10;99.90;;;;;;5011347;28;20187;-82
2021/01/14 08:08:59;;;;;;;0.10;0.10;;;3.00;99.90;;;;;;5012057;28;20250;-82
2021/01/14 08:11:49;;;;;;;0.10;0.10;;;3.10;99.90;;;;;;5007853;28;20172;-81
2021/01/14 08:14:20;;;;;;;0.07;0.07;;;3.10;99.90;;;;;;5006800;28;20221;-80
2021/01/14 08:16:52;;;;;;;0.10;0.10;;;3.20;99.90;;;;;;5024843;28;20204;-82
2021/01/14 08:19:33;;;;;;;0.10;0.10;;;3.30;99.90;;;;;;5005803;28;20189;-81
2021/01/14 08:21:58;;;;;;;0.10;0.10;;;3.30;99.90;;;;;;5007635;28;20176;-81
2021/01/14 08:24:55;;;;;;;0.43;0.20;;;3.40;99.90;;;;;;5005843;28;20233;-82
2021/01/14 08:27:21;;;;;;;0.10;0.10;;;3.30;99.90;;;;;;5007998;28;20234;-82
2021/01/14 08:30:05;;;;;;;0.27;0.27;;;3.30;99.90;;;;;;5008372;28;20557;-82
2021/01/14 08:32:50;;;;;;;0.10;0.10;;;3.40;99.90;;;;;;5018108;28;20190;-82
2021/01/14 08:35:15;;;;;;;0.10;0.10;;;3.20;99.90;;;;;;5000796;28;20211;-82
2021/01/14 08:37:46;;;;;;;0.10;0.10;;;3.20;99.90;;;;;;5003098;28;20553;-81
2021/01/14 08:40:13;;;;;;;0.10;0.10;;;3.10;99.90;;;;;;5008641;28;20563;-80
2021/01/14 08:42:40;;;;;;;0.03;0.03;;;3.30;99.90;;;;;;5006371;28;20604;-82
2021/01/14 08:45:15;;;;;;;0.10;0.10;;;3.10;99.90;;;;;;5005528;28;20206;-82
2021/01/14 08:47:55;;;;;;;0.10;0.10;;;3.10;99.90;;;;;;5005445;28;20254;-81
2021/01/14 08:50:41;;;;;;;0.10;0.10;;;3.00;99.90;;;;;;5002334;28;20267;-82
2021/01/14 08:53:09;;;;;;;0.00;0.00;;;3.00;99.90;;;;;;5007753;28;20185;-81
2021/01/14 08:55:35;;;;;;;0.03;0.03;;;3.00;99.90;;;;;;5005224;28;20561;-80
2021/01/14 08:58:05;;;;;;;0.10;0.10;;;3.00;99.90;;;;;;5006793;28;20274;-81
2021/01/14 09:00:31;;;;;;;0.10;0.10;;;3.00;99.90;;;;;;4999231;28;20193;-82
2021/01/14 09:02:57;;;;;;;0.13;0.13;;;2.90;99.90;;;;;;5006681;28;20647;-82
2021/01/14 09:05:22;;;;;;;0.10;0.10;;;3.00;99.90;;;;;;5005137;28;20213;-82
2021/01/14 09:08:05;;;;;;;0.10;0.10;;;3.20;99.90;;;;;;5005829;28;20233;-81
2021/01/14 09:10:49;;;;;;;0.30;0.30;;;3.40;99.90;;;;;;5002547;28;20217;-82
2021/01/14 09:13:25;;;;;;;0.37;0.10;;;3.30;99.90;;;;;;5002313;28;20215;-82
2021/01/14 09:15:53;;;;;;;1.13;1.03;;;3.30;99.90;;;;;;5003678;28;20210;-83
2021/01/14 09:18:32;;;;;;;0.07;0.07;;;3.30;99.90;;;;;;5003573;28;20190;-82
2021/01/14 09:20:58;;;;;;;0.00;0.00;;;3.40;99.90;;;;;;5007529;28;20209;-85
2021/01/14 09:23:32;;;;;;;0.07;0.07;;;3.40;99.90;;;;;;5007332;28;20671;-82
2021/01/14 09:25:58;;;;;;;0.10;0.10;;;3.30;99.90;;;;;;5006982;28;20207;-81
2021/01/14 09:28:25;;;;;;;0.20;0.20;;;3.10;99.90;;;;;;5011513;28;20233;-82
2021/01/14 09:31:05;;;;;;;0.17;0.17;;;3.00;99.90;;;;;;5010645;28;20264;-82
2021/01/14 09:33:33;;;;;;;0.10;0.10;;;2.80;99.90;;;;;;5012065;28;20182;-82
2021/01/14 09:36:07;;;;;;;0.20;0.20;;;2.90;99.90;;;;;;5003681;28;20219;-82
2021/01/14 09:38:49;;;;;;;0.10;0.10;;;2.90;99.90;;;;;;5005768;28;20659;-82
2021/01/14 09:41:25;;;;;;;0.20;0.20;;;2.80;99.90;;;;;;5009060;28;20187;-82
2021/01/14 09:44:03;;;;;;;0.20;0.20;;;3.00;99.90;;;;;;5010532;28;20306;-83
2021/01/14 09:46:35;;;;;;;0.00;0.00;;;3.00;99.90;;;;;;5010644;28;20191;-81
2021/01/14 09:49:06;;;;;;;0.00;0.00;;;3.20;99.90;;;;;;5012053;28;20217;-82
2021/01/14 09:51:33;;;;;;;0.10;0.10;;;3.10;99.90;;;;;;5010035;28;20184;-81
2021/01/14 09:53:59;;;;;;;0.20;0.20;;;3.20;99.90;;;;;;5011002;28;20203;-81
2021/01/14 09:56:31;;;;;;;0.10;0.10;;;3.10;99.90;;;;;;5011958;28;20186;-82
2021/01/14 09:59:09;;;;;;;0.97;0.30;;;3.20;99.90;;;;;;5009911;28;20186;-83
2021/01/14 10:01:41;;;;;;;0.10;0.10;;;3.00;99.90;;;;;;5012163;28;20718;-82
2021/01/14 10:04:11;;;;;;;0.20;0.20;;;3.00;99.90;;;;;;5012815;28;20225;-82
2021/01/14 10:06:43;;;;;;;0.10;0.10;;;2.90;99.90;;;;;;5012655;28;20522;-80
2021/01/14 10:09:11;;;;;;;0.10;0.10;;;2.80;99.90;;;;;;5012303;28;20207;-82
2021/01/14 10:11:36;;;;;;;0.00;0.00;;;3.00;99.90;;;;;;5011426;28;20185;-83
2021/01/14 10:14:02;;;;;;;0.07;0.07;;;3.20;99.90;;;;;;5011136;28;20207;-82
2021/01/14 10:16:29;;;;;;;0.10;0.10;;;3.10;99.90;;;;;;5006653;28;20664;-81
2021/01/14 10:19:08;;;;;;;0.20;0.20;;;3.00;99.90;;;;;;5004639;28;20183;-81
2021/01/14 10:21:37;;;;;;;0.53;0.40;;;3.00;99.90;;;;;;5021143;28;20184;-79
2021/01/14 10:24:03;;;;;;;0.60;0.20;;;3.00;99.90;;;;;;5009037;28;20210;-84
2021/01/14 10:26:29;;;;;;;0.00;0.00;;;3.10;99.90;;;;;;5002952;28;20192;-83
2021/01/14 10:28:55;;;;;;;0.00;0.00;;;3.20;99.90;;;;;;5010758;28;20870;-82
2021/01/14 10:31:38;;;;;;;0.10;0.10;;;3.20;99.90;;;;;;5004251;28;20191;-83
2021/01/14 10:34:07;;;;;;;0.10;0.10;;;3.40;99.90;;;;;;5012327;28;20345;-81
2021/01/14 10:36:49;;;;;;;0.10;0.10;;;3.30;99.90;;;;;;5010147;28;20182;-82
2021/01/14 10:39:18;;;;;;;0.33;0.10;;;3.10;99.90;;;;;;5010311;28;20181;-82
2021/01/14 10:41:45;;;;;;;0.30;0.30;;;3.20;99.90;;;;;;5014860;28;20191;-82
2021/01/14 10:44:11;;;;;;;0.20;0.20;;;3.30;99.90;;;;;;5010780;28;20341;-82
2021/01/14 10:46:40;;;;;;;0.50;0.50;;;3.40;99.90;;;;;;5010146;28;20629;-82
2021/01/14 10:49:12;;;;;;;5.07;0.30;;;3.40;99.90;;;;;;5012260;28;20207;-81
2021/01/14 10:51:40;;;;;;;0.30;0.30;;;3.40;99.90;;;;;;5012514;28;20190;-82
2021/01/14 10:54:06;;;;;;;0.33;0.33;;;3.40;99.90;;;;;;5015556;28;20207;-83
2021/01/14 10:56:32;;;;;;;0.30;0.30;;;3.30;99.90;;;;;;5014633;28;20222;-81
2021/01/14 10:59:01;;;;;;;0.93;0.73;;;3.30;99.90;;;;;;5013277;28;20211;-83
2021/01/14 11:01:27;;;;;;;0.77;0.40;;;3.20;99.90;;;;;;5008021;28;20190;-83
2021/01/14 11:03:53;;;;;;;0.10;0.10;;;3.10;99.90;;;;;;5007746;28;20209;-82
2021/01/14 11:06:33;;;;;;;0.67;0.27;;;3.20;99.90;;;;;;5014356;28;20264;-82
2021/01/14 11:09:11;;;;;;;0.10;0.10;;;3.30;99.90;;;;;;5015081;28;20750;-82
2021/01/14 11:11:37;;;;;;;0.20;0.20;;;3.40;99.90;;;;;;5012909;28;20746;-81
2021/01/14 11:14:03;;;;;;;0.17;0.17;;;3.40;99.90;;;;;;5014187;28;20270;-82
2021/01/14 11:16:29;;;;;;;0.20;0.20;;;3.50;99.90;;;;;;5012650;28;20203;-82
2021/01/14 11:18:57;;;;;;;0.03;0.03;;;3.40;99.90;;;;;;5012747;28;20192;-82
2021/01/14 11:21:28;;;;;;;0.00;0.00;;;3.50;99.90;;;;;;5012514;28;20893;-82
2021/01/14 11:23:54;;;;;;;0.10;0.10;;;3.60;99.90;;;;;;5012240;28;20251;-83
2021/01/14 11:26:21;;;;;;;0.10;0.10;;;3.90;99.90;;;;;;5009848;28;20583;-82
2021/01/14 11:28:47;;;;;;;0.10;0.10;;;3.80;99.90;;;;;;5012927;28;20671;-83
2021/01/14 11:31:17;;;;;;;0.10;0.10;;;3.90;99.90;;;;;;5005633;28;20607;-81
2021/01/14 11:33:43;;;;;;;0.10;0.10;;;3.80;99.90;;;;;;5015656;28;20216;-82
2021/01/14 11:36:10;;;;;;;0.10;0.10;;;3.70;99.90;;;;;;5012278;28;20183;-82
2021/01/14 11:38:37;;;;;;;0.30;0.30;;;4.00;99.90;;;;;;5028801;28;20191;-83
2021/01/14 11:41:03;;;;;;;0.23;0.23;;;3.70;99.90;;;;;;5007587;28;20283;-82
2021/01/14 11:43:29;;;;;;;0.10;0.10;;;3.90;99.90;;;;;;5004796;28;20652;-83
2021/01/14 11:45:54;;;;;;;0.13;0.13;;;3.90;99.90;;;;;;5009472;28;20212;-82
2021/01/14 11:48:20;;;;;;;0.20;0.20;;;3.70;99.90;;;;;;5010603;28;20612;-81
2021/01/14 11:50:46;;;;;;;0.10;0.10;;;3.60;99.90;;;;;;5007521;28;20187;-81
2021/01/14 11:53:11;;;;;;;0.00;0.00;;;3.50;99.90;;;;;;5009021;28;20184;-82
2021/01/14 11:55:37;;;;;;;0.10;0.10;;;3.90;99.90;;;;;;5004350;28;20200;-81
2021/01/14 11:58:03;;;;;;;0.13;0.13;;;3.80;99.90;;;;;;5009343;28;20210;-82
2021/01/14 12:00:29;;;;;;;0.20;0.20;;;3.70;99.90;;;;;;5005014;28;20237;-83
2021/01/14 12:02:54;;;;;;;0.10;0.10;;;3.60;99.90;;;;;;5007828;28;20188;-83
2021/01/14 12:05:20;;;;;;;0.10;0.10;;;3.60;99.90;;;;;;5007841;28;20215;-82
2021/01/14 12:07:46;;;;;;;0.10;0.10;;;3.80;99.90;;;;;;5010433;28;20205;-82
2021/01/14 12:10:13;;;;;;;0.10;0.10;;;3.90;99.90;;;;;;5002014;28;20641;-81
2021/01/14 12:12:38;;;;;;;0.00;0.00;;;4.10;99.90;;;;;;5006634;28;20266;-82
2021/01/14 12:15:05;;;;;;;0.10;0.10;;;3.70;99.90;;;;;;5008984;28;20722;-82
2021/01/14 12:17:32;;;;;;;0.20;0.20;;;3.90;99.90;;;;;;5010335;28;20656;-82
2021/01/14 12:19:58;;;;;;;0.10;0.10;;;4.20;99.90;;;;;;5008624;28;20250;-82
2021/01/14 12:22:23;;;;;;;0.13;0.13;;;4.30;99.90;;;;;;5011955;28;20293;-83
2021/01/14 12:24:49;;;;;;;0.10;0.10;;;4.60;99.90;;;;;;5013240;28;20228;-81
2021/01/14 12:27:15;;;;;;;0.20;0.20;;;4.90;99.90;;;;;;5009458;28;20189;-83
2021/01/14 12:29:40;;;;;;;0.20;0.20;;;4.80;99.90;;;;;;5011041;28;20173;-83
2021/01/14 12:32:06;;;;;;;0.00;0.00;;;4.80;99.90;;;;;;5009729;28;20693;-82
2021/01/14 12:34:32;;;;;;;0.20;0.20;;;4.80;99.90;;;;;;5011709;28;20692;-82
2021/01/14 12:36:58;;;;;;;0.10;0.10;;;4.80;99.90;;;;;;5009815;28;20764;-82
2021/01/14 12:39:24;;;;;;;0.30;0.30;;;4.70;99.90;;;;;;5011456;28;20633;-82
2021/01/14 12:41:50;;;;;;;1.40;0.20;;;4.90;99.90;;;;;;5010885;28;20217;-80
2021/01/14 12:44:16;;;;;;;5.50;0.33;;;4.90;99.90;;;;;;5005714;28;20683;-82
2021/01/14 12:46:45;;;;;;;0.10;0.10;;;4.90;99.90;;;;;;5009186;28;20189;-82
2021/01/14 12:49:12;;;;;;;0.03;0.03;;;4.90;99.90;;;;;;5000888;28;20256;-82
2021/01/14 12:51:39;;;;;;;0.10;0.10;;;4.50;99.90;;;;;;5011217;28;20182;-83
2021/01/14 12:54:05;;;;;;;0.10;0.10;;;4.60;99.90;;;;;;5010623;28;20201;-82
2021/01/14 12:56:31;;;;;;;0.10;0.10;;;4.70;99.90;;;;;;5011099;28;20268;-82
2021/01/14 12:58:57;;;;;;;0.23;0.23;;;4.90;99.90;;;;;;5010589;28;20216;-82
2021/01/14 13:01:36;;;;;;;0.10;0.10;;;4.70;99.90;;;;;;5004522;28;20193;-82
2021/01/14 13:04:03;;;;;;;0.10;0.10;;;4.80;99.90;;;;;;5009972;28;20981;-81
2021/01/14 13:06:32;;;;;;;0.10;0.10;;;5.00;99.90;;;;;;5010159;28;20187;-80
2021/01/14 13:08:59;;;;;;;0.10;0.10;;;5.10;99.90;;;;;;5009639;28;20609;-82